Time;durP1;ratioP1;P1;durP2;ratioP2;P2;SDS_P1;SDS_P2;PMS_P1;PMS_P2;Temp;Humidity;BMP_temperature;BMP_pressure;BME280_temperature;BME280_humidity;BME280_pressure;Samples;Min_cycle;Max_cycle;Signal;HPM_P1;HPM_P2
2023/07/21 00:01:17;;;;;;;4.20;2.33;;;20.20;99.90;;;;;;5095481;28;20250;-62
2023/07/21 00:03:48;;;;;;;7.60;2.70;;;20.10;99.90;;;;;;5101870;28;20659;-63
2023/07/21 00:06:19;;;;;;;4.47;2.15;;;20.10;99.90;;;;;;5070906;28;20303;-62
2023/07/21 00:08:46;;;;;;;4.63;2.60;;;20.10;99.90;;;;;;5080645;28;20639;-63
2023/07/21 00:11:14;;;;;;;4.38;2.50;;;20.10;99.90;;;;;;5086016;28;20242;-62
2023/07/21 00:13:43;;;;;;;4.50;2.05;;;20.10;99.90;;;;;;5087925;28;20214;-62
2023/07/21 00:16:11;;;;;;;4.70;2.10;;;20.10;99.90;;;;;;5082566;28;20259;-62
2023/07/21 00:18:41;;;;;;;3.00;2.30;;;20.10;99.90;;;;;;5074472;28;20205;-62
2023/07/21 00:21:11;;;;;;;3.50;2.58;;;20.10;99.90;;;;;;5084097;28;20243;-62
2023/07/21 00:23:39;;;;;;;4.88;2.00;;;20.10;99.90;;;;;;5087827;28;20290;-62
2023/07/21 00:26:07;;;;;;;3.25;2.42;;;20.10;99.90;;;;;;5094692;28;20273;-62
2023/07/21 00:28:35;;;;;;;2.85;2.22;;;20.10;99.90;;;;;;5104629;28;20242;-62
2023/07/21 00:31:03;;;;;;;2.63;1.80;;;20.10;99.90;;;;;;5087151;28;20204;-62
2023/07/21 00:33:31;;;;;;;2.42;2.08;;;20.20;99.90;;;;;;5091621;28;20210;-62
2023/07/21 00:35:59;;;;;;;1.90;1.85;;;20.20;99.90;;;;;;5072043;28;20354;-62
2023/07/21 00:38:29;;;;;;;3.00;2.10;;;20.20;99.90;;;;;;5079952;28;20208;-63
2023/07/21 00:40:57;;;;;;;2.40;2.20;;;20.20;99.90;;;;;;5083971;28;20211;-62
2023/07/21 00:43:25;;;;;;;6.50;2.83;;;20.20;99.90;;;;;;5085763;28;20684;-63
2023/07/21 00:45:53;;;;;;;3.05;1.70;;;20.20;99.90;;;;;;5072481;28;20215;-66
2023/07/21 00:48:21;;;;;;;2.08;1.98;;;20.20;99.90;;;;;;5072393;28;20286;-63
2023/07/21 00:50:51;;;;;;;2.20;2.10;;;20.20;99.90;;;;;;5090401;28;20301;-62
2023/07/21 00:53:19;;;;;;;2.10;2.10;;;20.20;99.90;;;;;;5086529;28;20242;-63
2023/07/21 00:55:48;;;;;;;3.17;2.40;;;20.20;99.90;;;;;;5104781;28;20215;-63
2023/07/21 00:58:16;;;;;;;2.47;2.22;;;20.20;99.90;;;;;;5097055;28;20283;-63
2023/07/21 01:00:44;;;;;;;2.08;1.88;;;20.20;99.90;;;;;;5089914;28;20708;-63
2023/07/21 01:03:12;;;;;;;3.03;2.08;;;20.20;99.90;;;;;;5087464;28;20220;-63
2023/07/21 01:05:41;;;;;;;2.25;2.08;;;20.20;99.90;;;;;;5077402;28;20725;-62
2023/07/21 01:08:10;;;;;;;4.10;2.35;;;20.20;99.90;;;;;;5078965;28;20261;-63
2023/07/21 01:10:38;;;;;;;5.50;2.67;;;20.20;99.90;;;;;;5088127;28;20236;-62
2023/07/21 01:13:09;;;;;;;4.60;2.33;;;20.20;99.90;;;;;;5094719;28;20223;-62
2023/07/21 01:15:44;;;;;;;4.85;2.60;;;20.10;99.90;;;;;;5077926;28;20208;-62
2023/07/21 01:18:13;;;;;;;7.35;2.80;;;20.10;99.90;;;;;;5077970;28;20207;-63
2023/07/21 01:20:40;;;;;;;4.25;2.30;;;20.10;99.90;;;;;;5080070;28;20298;-62
2023/07/21 01:23:12;;;;;;;6.30;3.17;;;20.10;99.90;;;;;;5078382;28;20273;-62
2023/07/21 01:25:42;;;;;;;4.50;2.72;;;20.10;99.90;;;;;;5077182;28;20613;-62
2023/07/21 01:28:10;;;;;;;2.90;2.60;;;20.10;99.90;;;;;;5078460;28;20227;-64
2023/07/21 01:30:37;;;;;;;3.92;2.70;;;20.00;99.90;;;;;;5092840;28;20257;-63
2023/07/21 01:33:05;;;;;;;3.90;2.25;;;20.00;99.90;;;;;;5084084;28;20201;-62
2023/07/21 01:35:33;;;;;;;3.40;2.38;;;19.90;99.90;;;;;;5090339;28;20797;-63
2023/07/21 01:38:01;;;;;;;8.45;2.55;;;19.90;99.90;;;;;;5102276;28;20197;-62
2023/07/21 01:40:29;;;;;;;3.45;2.45;;;19.80;99.90;;;;;;5092722;28;20530;-62
2023/07/21 01:42:59;;;;;;;3.25;2.35;;;19.80;99.90;;;;;;5085572;28;20277;-62
2023/07/21 01:45:26;;;;;;;2.90;2.80;;;19.70;99.90;;;;;;5098538;28;20245;-62
2023/07/21 01:47:56;;;;;;;4.07;2.65;;;19.70;99.90;;;;;;5101934;28;20293;-62
2023/07/21 01:50:25;;;;;;;3.28;2.45;;;19.60;99.90;;;;;;5080603;28;20583;-62
2023/07/21 01:52:52;;;;;;;2.63;2.42;;;19.60;99.90;;;;;;5085376;28;20226;-62
2023/07/21 01:55:23;;;;;;;3.13;2.88;;;19.60;99.90;;;;;;5079721;28;20232;-63
2023/07/21 01:57:54;;;;;;;2.65;2.38;;;19.60;99.90;;;;;;5074527;28;20220;-62
2023/07/21 02:00:25;;;;;;;3.10;2.80;;;19.60;99.90;;;;;;5086993;28;20203;-63
2023/07/21 02:02:53;;;;;;;2.60;2.50;;;19.50;99.90;;;;;;5085421;28;20216;-63
2023/07/21 02:05:22;;;;;;;3.17;2.88;;;19.50;99.90;;;;;;5079272;28;20205;-63
2023/07/21 02:07:50;;;;;;;4.07;2.78;;;19.40;99.90;;;;;;5064953;22;20278;-74
2023/07/21 02:10:18;;;;;;;4.07;2.55;;;19.30;99.90;;;;;;5052090;28;20277;-74
2023/07/21 02:12:47;;;;;;;4.43;2.92;;;19.20;99.90;;;;;;5051762;28;20729;-74
2023/07/21 02:15:15;;;;;;;2.92;2.60;;;19.20;99.90;;;;;;5052315;28;20275;-74
2023/07/21 02:17:44;;;;;;;4.63;3.00;;;19.10;99.90;;;;;;5058642;28;20248;-74
2023/07/21 02:20:14;;;;;;;3.85;2.58;;;19.10;99.90;;;;;;5056519;28;20849;-74
2023/07/21 02:22:43;;;;;;;3.78;2.70;;;19.10;99.90;;;;;;5067223;28;20224;-74
2023/07/21 02:25:12;;;;;;;2.80;2.70;;;19.10;99.90;;;;;;5059867;28;20718;-74
2023/07/21 02:27:40;;;;;;;3.92;3.22;;;19.00;99.90;;;;;;5036478;28;20612;-74
2023/07/21 02:30:09;;;;;;;2.75;2.65;;;19.00;99.90;;;;;;5040395;28;20201;-74
2023/07/21 02:32:37;;;;;;;3.45;2.67;;;19.00;99.90;;;;;;5059576;28;20197;-73
2023/07/21 02:35:08;;;;;;;2.60;2.47;;;19.00;99.90;;;;;;5059815;28;20335;-73
2023/07/21 02:37:36;;;;;;;3.53;3.20;;;18.90;99.90;;;;;;5060573;28;20679;-74
2023/07/21 02:40:06;;;;;;;3.38;3.17;;;18.90;99.90;;;;;;5070579;28;20274;-73
2023/07/21 02:42:35;;;;;;;3.30;3.10;;;18.80;99.90;;;;;;5064084;28;20281;-74
2023/07/21 02:45:04;;;;;;;8.25;3.10;;;18.90;99.90;;;;;;5060624;28;20303;-74
2023/07/21 02:47:33;;;;;;;3.45;3.15;;;18.80;99.90;;;;;;5036702;28;20202;-74
2023/07/21 02:50:01;;;;;;;4.18;3.00;;;18.80;99.90;;;;;;5060541;28;20206;-74
2023/07/21 02:52:30;;;;;;;3.40;3.15;;;18.90;99.90;;;;;;5063282;28;20201;-72
2023/07/21 02:54:58;;;;;;;5.50;3.42;;;18.80;99.90;;;;;;5061140;28;20225;-73
2023/07/21 02:57:26;;;;;;;5.53;3.58;;;18.80;99.90;;;;;;5037785;28;20218;-73
2023/07/21 02:59:54;;;;;;;3.80;3.38;;;18.80;99.90;;;;;;5059016;28;20260;-73
2023/07/21 03:02:22;;;;;;;5.20;3.63;;;18.80;99.90;;;;;;5057654;28;20238;-73
2023/07/21 03:04:50;;;;;;;3.88;3.58;;;18.80;99.90;;;;;;5044207;28;20226;-74
2023/07/21 03:07:18;;;;;;;3.65;3.30;;;18.80;99.90;;;;;;5045755;28;20213;-74
2023/07/21 03:09:48;;;;;;;4.20;3.33;;;18.80;99.90;;;;;;5035167;28;20253;-73
2023/07/21 03:12:16;;;;;;;6.13;3.50;;;18.80;99.90;;;;;;5055249;28;20209;-73
2023/07/21 03:14:44;;;;;;;4.45;3.47;;;18.80;99.90;;;;;;5069569;22;20270;-60
2023/07/21 03:17:13;;;;;;;3.85;3.50;;;18.80;99.90;;;;;;5064495;28;20247;-64
2023/07/21 03:19:41;;;;;;;5.53;3.80;;;18.80;99.90;;;;;;5065255;28;20202;-64
2023/07/21 03:22:09;;;;;;;4.13;3.28;;;18.70;99.90;;;;;;5064375;28;20240;-64
2023/07/21 03:24:39;;;;;;;4.13;3.75;;;18.70;99.90;;;;;;5073914;28;20229;-63
2023/07/21 03:27:12;;;;;;;8.15;3.50;;;18.80;99.90;;;;;;5070141;28;20308;-63
2023/07/21 03:29:42;;;;;;;3.42;3.20;;;18.70;99.90;;;;;;5073822;28;20243;-63
2023/07/21 03:32:13;;;;;;;3.53;2.88;;;18.70;99.90;;;;;;5065603;28;20212;-64
2023/07/21 03:34:41;;;;;;;3.72;3.33;;;18.80;99.90;;;;;;5074080;28;20242;-64
2023/07/21 03:37:09;;;;;;;3.80;3.42;;;18.70;99.90;;;;;;5072923;28;20225;-64
2023/07/21 03:39:37;;;;;;;4.85;3.22;;;18.80;99.90;;;;;;5065190;28;20201;-63
2023/07/21 03:42:06;;;;;;;3.85;3.60;;;18.70;99.90;;;;;;5070749;28;20664;-63
2023/07/21 03:44:35;;;;;;;5.20;3.50;;;18.70;99.90;;;;;;5072961;28;20711;-64
2023/07/21 03:47:03;;;;;;;3.67;3.38;;;18.70;99.90;;;;;;5073577;28;20254;-63
2023/07/21 03:49:31;;;;;;;4.40;3.72;;;18.70;99.90;;;;;;5073860;28;20196;-63
2023/07/21 03:52:00;;;;;;;3.95;3.72;;;18.70;99.90;;;;;;5064128;28;20236;-63
2023/07/21 03:54:28;;;;;;;8.13;3.80;;;18.70;99.90;;;;;;5066557;28;20688;-63
2023/07/21 03:56:56;;;;;;;4.28;3.38;;;18.60;99.90;;;;;;5071332;28;20270;-63
2023/07/21 03:59:23;;;;;;;4.60;4.15;;;18.60;99.90;;;;;;5062477;28;20233;-63
2023/07/21 04:01:53;;;;;;;3.78;3.58;;;18.60;99.90;;;;;;5069077;28;20261;-62
2023/07/21 04:04:21;;;;;;;5.20;4.25;;;18.70;99.90;;;;;;5071795;28;20213;-63
2023/07/21 04:06:49;;;;;;;4.38;3.97;;;18.60;99.90;;;;;;5063296;28;20225;-64
2023/07/21 04:09:18;;;;;;;6.13;4.30;;;18.60;99.90;;;;;;5066501;28;20627;-64
2023/07/21 04:11:46;;;;;;;7.03;4.20;;;18.60;99.90;;;;;;5070146;28;20624;-63
2023/07/21 04:14:14;;;;;;;3.83;3.47;;;18.60;99.90;;;;;;5072843;28;20210;-61
2023/07/21 04:16:41;;;;;;;4.18;3.83;;;18.60;99.90;;;;;;5072397;28;20658;-64
2023/07/21 04:19:11;;;;;;;6.57;4.40;;;18.60;99.90;;;;;;5061791;28;20201;-63
2023/07/21 04:21:39;;;;;;;4.43;4.03;;;18.60;99.90;;;;;;5062640;28;20240;-63
2023/07/21 04:24:07;;;;;;;6.60;4.47;;;18.60;99.90;;;;;;5075874;28;20224;-64
2023/07/21 04:26:35;;;;;;;5.05;4.57;;;18.60;99.90;;;;;;5075916;28;20224;-63
2023/07/21 04:29:03;;;;;;;6.80;4.55;;;18.60;99.90;;;;;;5072314;28;20262;-63
2023/07/21 04:31:31;;;;;;;6.78;4.45;;;18.50;99.90;;;;;;5074706;28;20699;-63
2023/07/21 04:33:59;;;;;;;6.97;5.20;;;18.50;99.90;;;;;;5073514;28;20204;-63
2023/07/21 04:36:28;;;;;;;7.82;3.90;;;18.50;99.90;;;;;;5070666;28;20323;-63
2023/07/21 04:38:57;;;;;;;4.72;3.90;;;18.40;99.90;;;;;;5060469;28;20255;-64
2023/07/21 04:41:25;;;;;;;7.72;4.30;;;18.40;99.90;;;;;;5061802;28;20232;-63
2023/07/21 04:43:53;;;;;;;4.38;3.92;;;18.30;99.90;;;;;;5073924;28;20252;-62
2023/07/21 04:46:21;;;;;;;3.95;3.70;;;18.30;99.90;;;;;;5069757;28;20244;-64
2023/07/21 04:48:49;;;;;;;4.85;4.07;;;18.20;99.90;;;;;;5076994;28;20201;-64
2023/07/21 04:51:17;;;;;;;5.95;4.30;;;18.20;99.90;;;;;;5076939;28;20235;-63
2023/07/21 04:53:46;;;;;;;7.15;4.15;;;18.20;99.90;;;;;;5077241;28;20228;-63
2023/07/21 04:56:14;;;;;;;6.05;3.47;;;18.20;99.90;;;;;;5074997;28;20227;-64
2023/07/21 04:58:42;;;;;;;4.80;4.35;;;18.20;99.90;;;;;;5068265;28;20201;-63
2023/07/21 05:01:10;;;;;;;5.95;4.15;;;18.30;99.90;;;;;;5068288;28;20233;-63
2023/07/21 05:03:39;;;;;;;5.85;3.95;;;18.30;99.90;;;;;;5074470;28;20200;-63
2023/07/21 05:06:09;;;;;;;5.70;4.25;;;18.40;99.90;;;;;;5072596;28;20201;-63
2023/07/21 05:08:37;;;;;;;6.60;4.35;;;18.40;99.90;;;;;;5070247;28;20239;-63
2023/07/21 05:11:09;;;;;;;4.55;4.13;;;18.40;99.90;;;;;;5073809;28;20346;-63
2023/07/21 05:13:38;;;;;;;5.43;4.28;;;18.40;99.90;;;;;;5069781;28;20200;-63
2023/07/21 05:16:06;;;;;;;4.50;3.80;;;18.30;99.90;;;;;;5062650;28;20210;-63
2023/07/21 05:18:34;;;;;;;6.22;4.00;;;18.50;99.90;;;;;;5069642;28;20205;-63
2023/07/21 05:21:02;;;;;;;5.43;4.07;;;18.60;99.90;;;;;;5071394;28;20204;-63
2023/07/21 05:23:31;;;;;;;3.10;2.90;;;18.70;99.90;;;;;;5073073;28;20240;-60
2023/07/21 05:26:00;;;;;;;3.45;2.67;;;18.80;99.90;;;;;;5065662;28;20220;-60
2023/07/21 05:28:29;;;;;;;4.05;3.15;;;18.90;99.90;;;;;;5070649;28;20208;-60
2023/07/21 05:30:57;;;;;;;3.95;3.60;;;19.00;99.90;;;;;;5070551;28;20598;-60
2023/07/21 05:33:25;;;;;;;9.50;5.03;;;19.10;99.90;;;;;;5073402;28;20251;-60
2023/07/21 05:35:53;;;;;;;6.70;4.82;;;19.20;99.90;;;;;;5071142;28;20216;-60
2023/07/21 05:38:21;;;;;;;5.47;4.43;;;19.20;99.90;;;;;;5080614;28;20205;-59
2023/07/21 05:40:57;;;;;;;4.03;3.83;;;19.10;99.90;;;;;;5079505;28;20561;-60
2023/07/21 05:43:25;;;;;;;4.22;3.88;;;19.10;99.90;;;;;;5081061;28;20196;-63
2023/07/21 05:45:55;;;;;;;5.60;4.13;;;19.20;99.90;;;;;;5080939;28;20233;-58
2023/07/21 05:48:24;;;;;;;5.13;4.60;;;19.30;99.90;;;;;;5081454;28;20353;-60
2023/07/21 05:50:52;;;;;;;5.22;4.72;;;19.40;99.90;;;;;;5081103;28;20200;-60
2023/07/21 05:53:20;;;;;;;5.22;3.80;;;19.30;99.90;;;;;;5077847;28;20237;-60
2023/07/21 05:55:50;;;;;;;4.50;4.13;;;19.40;99.90;;;;;;5066688;28;20664;-60
2023/07/21 05:58:19;;;;;;;4.43;4.10;;;19.50;99.90;;;;;;5072586;28;20225;-60
2023/07/21 06:00:47;;;;;;;5.47;3.83;;;19.70;99.90;;;;;;5067845;28;20251;-60
2023/07/21 06:03:17;;;;;;;4.60;4.20;;;19.90;99.90;;;;;;5072277;28;20318;-60
2023/07/21 06:05:45;;;;;;;4.15;3.85;;;20.00;99.90;;;;;;5073330;28;20587;-59
2023/07/21 06:08:13;;;;;;;3.78;3.47;;;20.10;99.90;;;;;;5080499;28;20224;-61
2023/07/21 06:10:41;;;;;;;5.72;4.18;;;20.20;99.90;;;;;;5072121;28;20273;-60
2023/07/21 06:13:09;;;;;;;4.05;3.72;;;20.30;99.90;;;;;;5076007;28;20197;-60
2023/07/21 06:15:37;;;;;;;3.67;3.42;;;20.40;99.90;;;;;;5075001;28;20270;-59
2023/07/21 06:18:05;;;;;;;4.25;3.70;;;20.40;99.90;;;;;;5070406;28;20255;-59
2023/07/21 06:20:34;;;;;;;4.20;3.67;;;20.50;99.90;;;;;;5076187;28;20208;-58
2023/07/21 06:23:03;;;;;;;4.57;3.60;;;20.50;99.90;;;;;;5076914;28;20197;-60
2023/07/21 06:25:31;;;;;;;4.13;3.63;;;20.40;99.90;;;;;;5071363;28;20260;-61
2023/07/21 06:27:58;;;;;;;3.53;3.28;;;20.40;99.90;;;;;;5074645;28;20263;-61
2023/07/21 06:30:26;;;;;;;6.65;3.72;;;20.40;99.90;;;;;;5070461;28;20240;-60
2023/07/21 06:32:55;;;;;;;5.68;4.40;;;20.50;99.90;;;;;;5069339;28;20212;-60
2023/07/21 06:35:23;;;;;;;4.57;3.95;;;20.60;99.90;;;;;;5063334;28;20671;-60
2023/07/21 06:37:53;;;;;;;4.55;4.15;;;20.40;99.90;;;;;;5069700;28;20353;-59
2023/07/21 06:40:21;;;;;;;4.05;3.75;;;20.30;99.90;;;;;;5058042;28;20266;-60
2023/07/21 06:42:49;;;;;;;5.45;4.10;;;20.20;99.90;;;;;;5072575;28;20205;-60
2023/07/21 06:45:17;;;;;;;8.60;4.22;;;20.20;99.90;;;;;;5071998;28;20256;-59
2023/07/21 06:47:45;;;;;;;8.18;4.20;;;20.20;99.90;;;;;;5072120;28;20294;-60
2023/07/21 06:50:13;;;;;;;4.85;4.25;;;20.20;99.90;;;;;;5072613;28;20211;-59
2023/07/21 06:52:41;;;;;;;4.70;3.88;;;20.20;99.90;;;;;;5072747;28;20201;-59
2023/07/21 06:55:10;;;;;;;7.40;4.90;;;20.20;99.90;;;;;;5072312;28;20246;-60
2023/07/21 06:57:38;;;;;;;5.32;4.18;;;20.20;99.90;;;;;;5071204;28;20252;-57
2023/07/21 07:00:08;;;;;;;5.35;4.15;;;20.20;99.90;;;;;;5056155;28;20688;-58
2023/07/21 07:02:36;;;;;;;5.82;4.43;;;20.30;99.90;;;;;;5068957;28;20220;-60
2023/07/21 07:05:04;;;;;;;5.07;4.22;;;20.40;99.90;;;;;;5071113;28;20271;-60
2023/07/21 07:07:32;;;;;;;4.13;3.72;;;20.40;99.90;;;;;;5071446;28;20693;-60
2023/07/21 07:10:00;;;;;;;4.57;3.75;;;20.40;99.90;;;;;;5068721;28;20277;-60
2023/07/21 07:12:29;;;;;;;11.38;4.18;;;20.40;99.90;;;;;;5070194;28;20236;-60
2023/07/21 07:14:58;;;;;;;5.28;3.58;;;20.50;99.90;;;;;;5068583;28;20204;-60
2023/07/21 07:17:26;;;;;;;6.47;3.90;;;20.50;99.90;;;;;;5069544;28;20220;-60
2023/07/21 07:19:54;;;;;;;4.45;4.07;;;20.50;99.90;;;;;;5070619;28;20200;-60
2023/07/21 07:22:22;;;;;;;4.70;4.05;;;20.60;99.90;;;;;;5064989;28;20298;-61
2023/07/21 07:24:50;;;;;;;5.70;3.95;;;20.60;99.90;;;;;;5070066;28;20232;-60
2023/07/21 07:27:18;;;;;;;6.05;3.83;;;20.60;99.90;;;;;;5059686;28;20723;-59
2023/07/21 07:29:48;;;;;;;5.30;3.65;;;20.70;99.90;;;;;;5060922;28;20208;-59
2023/07/21 07:32:16;;;;;;;4.47;3.75;;;20.70;99.90;;;;;;5070813;28;20287;-59
2023/07/21 07:34:44;;;;;;;4.28;3.97;;;20.70;99.90;;;;;;5062583;28;20284;-60
2023/07/21 07:37:12;;;;;;;5.40;3.42;;;20.70;99.90;;;;;;5071450;28;20217;-59
2023/07/21 07:39:40;;;;;;;3.83;3.63;;;20.70;99.90;;;;;;5071488;28;20742;-59
2023/07/21 07:42:08;;;;;;;5.60;4.03;;;20.90;99.90;;;;;;5071944;28;20283;-59
2023/07/21 07:44:36;;;;;;;5.22;4.03;;;21.00;99.90;;;;;;5071866;28;20283;-60
2023/07/21 07:47:06;;;;;;;4.50;4.10;;;21.10;99.90;;;;;;5071063;28;20229;-60
2023/07/21 07:49:35;;;;;;;7.93;4.50;;;21.10;99.90;;;;;;5070162;28;20220;-60
2023/07/21 07:52:03;;;;;;;4.25;3.90;;;21.10;99.90;;;;;;5071313;28;20586;-60
2023/07/21 07:54:31;;;;;;;9.98;3.88;;;21.10;99.90;;;;;;5071682;28;20200;-60
2023/07/21 07:56:59;;;;;;;5.80;4.30;;;21.20;99.90;;;;;;5069844;28;20249;-59
2023/07/21 07:59:27;;;;;;;4.75;3.92;;;21.20;99.90;;;;;;5070997;28;20261;-58
2023/07/21 08:01:55;;;;;;;6.47;3.63;;;21.40;99.90;;;;;;5071566;28;20232;-58
2023/07/21 08:04:25;;;;;;;6.53;4.15;;;21.40;99.90;;;;;;5071560;28;20208;-59
2023/07/21 08:06:53;;;;;;;4.32;3.70;;;21.50;99.90;;;;;;5071150;28;20214;-60
2023/07/21 08:09:22;;;;;;;4.55;4.13;;;21.60;99.90;;;;;;5070756;28;20327;-60
2023/07/21 08:11:51;;;;;;;3.60;3.38;;;21.60;99.90;;;;;;5070731;28;20240;-60
2023/07/21 08:18:20;;;;;;;4.07;3.45;;;21.80;99.90;;;;;;5063326;22;20381;-76
2023/07/21 08:20:50;;;;;;;4.93;3.63;;;21.80;99.90;;;;;;5076316;28;20254;-76
2023/07/21 08:23:18;;;;;;;3.40;3.15;;;21.80;99.90;;;;;;5076557;28;20521;-74
2023/07/21 08:25:56;;;;;;;4.00;3.42;;;21.80;99.90;;;;;;5070548;28;20227;-74
2023/07/21 08:28:24;;;;;;;3.78;3.42;;;21.90;99.90;;;;;;5070801;28;20709;-77
2023/07/21 08:30:52;;;;;;;5.88;3.30;;;21.90;99.90;;;;;;5071051;28;20250;-74
2023/07/21 08:33:23;;;;;;;3.33;3.13;;;21.90;99.90;;;;;;5080028;22;20307;-55
2023/07/21 08:35:52;;;;;;;5.80;3.75;;;21.90;99.90;;;;;;5063991;28;20284;-57
2023/07/21 08:38:20;;;;;;;2.63;2.42;;;21.90;99.90;;;;;;5060047;28;20601;-57
2023/07/21 08:40:49;;;;;;;3.15;2.72;;;21.80;99.90;;;;;;5068799;28;20236;-59
2023/07/21 08:43:18;;;;;;;3.20;2.53;;;21.70;99.90;;;;;;5055875;28;20204;-58
2023/07/21 08:45:46;;;;;;;3.30;2.78;;;21.80;99.90;;;;;;5064688;28;20255;-59
2023/07/21 08:48:17;;;;;;;4.78;2.72;;;21.90;99.90;;;;;;5062863;28;20205;-58
2023/07/21 08:50:45;;;;;;;2.88;2.67;;;22.00;99.90;;;;;;5058509;28;20263;-59
2023/07/21 08:53:14;;;;;;;2.47;2.13;;;22.00;99.90;;;;;;5070820;28;20236;-59
2023/07/21 08:55:43;;;;;;;4.25;3.05;;;22.00;99.90;;;;;;5054076;28;20288;-59
2023/07/21 08:58:10;;;;;;;3.28;2.80;;;22.00;99.90;;;;;;5062368;28;20755;-59
2023/07/21 09:00:38;;;;;;;2.63;2.53;;;22.10;99.90;;;;;;5059374;28;20625;-59
2023/07/21 09:06:55;;;;;;;4.53;2.70;;;22.20;99.90;;;;;;5067459;28;20219;-59
2023/07/21 09:09:25;;;;;;;2.83;2.63;;;22.30;99.90;;;;;;5066447;28;20668;-58
2023/07/21 09:12:00;;;;;;;2.38;2.28;;;22.30;99.90;;;;;;5056877;28;20288;-59
2023/07/21 09:14:35;;;;;;;2.72;2.53;;;22.30;99.90;;;;;;5073134;28;20283;-58
2023/07/21 09:17:04;;;;;;;2.60;2.40;;;22.30;99.90;;;;;;5046240;28;20277;-58
2023/07/21 09:19:31;;;;;;;2.42;2.33;;;22.20;99.90;;;;;;5067344;28;20233;-58
2023/07/21 09:21:59;;;;;;;2.55;2.38;;;22.10;99.90;;;;;;5065601;28;20641;-59
2023/07/21 09:24:28;;;;;;;3.40;2.28;;;22.10;99.90;;;;;;5070368;28;20200;-59
2023/07/21 09:27:11;;;;;;;2.20;2.08;;;22.20;99.90;;;;;;5041516;28;20219;-59
2023/07/21 09:29:40;;;;;;;2.70;2.50;;;22.40;99.90;;;;;;5064318;28;20197;-58
2023/07/21 09:32:12;;;;;;;2.58;2.22;;;22.60;99.90;;;;;;5067930;28;20200;-59
2023/07/21 09:34:54;;;;;;;2.63;2.40;;;22.70;99.90;;;;;;5057298;28;20210;-59
2023/07/21 09:37:22;;;;;;;2.67;2.20;;;22.90;99.90;;;;;;5066057;28;20245;-59
2023/07/21 09:39:55;;;;;;;3.72;2.58;;;22.90;99.90;;;;;;5064546;28;20236;-58
2023/07/21 09:42:23;;;;;;;2.45;2.30;;;23.00;99.90;;;;;;5058401;28;20201;-60
2023/07/21 09:44:52;;;;;;;2.50;2.30;;;23.10;99.90;;;;;;5070316;28;20244;-60
2023/07/21 09:47:20;;;;;;;2.25;2.08;;;23.20;99.90;;;;;;5060878;28;20669;-58
2023/07/21 09:49:49;;;;;;;2.08;1.98;;;23.30;99.90;;;;;;5062989;28;20370;-59
2023/07/21 09:52:17;;;;;;;1.92;1.83;;;23.40;99.90;;;;;;5068416;28;20291;-59
2023/07/21 09:54:45;;;;;;;2.45;2.05;;;23.50;99.90;;;;;;5057208;28;20209;-60
2023/07/21 09:57:16;;;;;;;2.40;2.20;;;23.70;99.90;;;;;;5067349;28;20220;-59
2023/07/21 09:59:44;;;;;;;3.22;1.90;;;23.80;99.90;;;;;;5053721;28;20197;-59
2023/07/21 10:02:12;;;;;;;1.98;1.88;;;23.80;99.90;;;;;;5067791;28;20206;-59
2023/07/21 10:04:40;;;;;;;2.15;1.98;;;24.00;99.90;;;;;;5056814;28;20220;-59
2023/07/21 10:07:09;;;;;;;4.15;2.00;;;24.10;99.90;;;;;;5067832;28;20312;-59
2023/07/21 10:09:37;;;;;;;1.77;1.67;;;24.30;99.90;;;;;;5063181;28;20291;-59
2023/07/21 10:12:10;;;;;;;2.00;1.85;;;24.50;99.90;;;;;;5059853;28;20297;-60
2023/07/21 10:14:40;;;;;;;5.15;1.90;;;24.90;99.90;;;;;;5068843;28;20250;-59
2023/07/21 10:17:08;;;;;;;3.88;1.73;;;25.30;99.90;;;;;;5057106;28;20687;-60
2023/07/21 10:19:40;;;;;;;2.78;2.28;;;25.50;99.90;;;;;;5058518;28;20205;-59
2023/07/21 10:22:10;;;;;;;2.90;2.10;;;25.50;99.90;;;;;;5060616;28;20201;-60
2023/07/21 10:24:43;;;;;;;2.63;1.90;;;25.50;99.90;;;;;;5059466;28;20229;-59
2023/07/21 10:27:18;;;;;;;2.28;1.80;;;25.40;99.90;;;;;;5054083;28;20232;-58
2023/07/21 10:29:47;;;;;;;2.67;1.73;;;25.30;99.90;;;;;;5069977;28;20254;-60
2023/07/21 10:32:15;;;;;;;1.70;1.70;;;25.30;99.90;;;;;;5057862;28;20652;-59
2023/07/21 10:34:43;;;;;;;2.80;1.67;;;25.30;99.90;;;;;;5069556;28;20247;-59
2023/07/21 10:37:11;;;;;;;4.85;1.80;;;25.30;99.90;;;;;;5052734;28;20300;-59
2023/07/21 10:39:42;;;;;;;5.45;1.70;;;25.10;99.90;;;;;;5049939;28;20228;-59
2023/07/21 10:42:11;;;;;;;3.08;2.40;;;24.80;99.90;;;;;;5054939;28;20209;-59
2023/07/21 10:44:39;;;;;;;1.80;1.70;;;24.60;99.90;;;;;;5067823;28;20206;-59
2023/07/21 10:47:13;;;;;;;3.17;2.25;;;24.50;99.90;;;;;;5053487;28;20229;-59
2023/07/21 10:49:41;;;;;;;2.85;2.05;;;24.40;99.90;;;;;;5062666;28;20622;-59
2023/07/21 10:52:09;;;;;;;2.30;2.10;;;24.30;99.90;;;;;;5058501;28;20292;-59
2023/07/21 10:54:37;;;;;;;3.53;1.67;;;24.30;99.90;;;;;;5055675;28;20209;-57
2023/07/21 10:57:06;;;;;;;2.38;2.00;;;24.20;99.90;;;;;;5064238;28;20253;-58
2023/07/21 10:59:34;;;;;;;2.33;2.13;;;24.10;99.90;;;;;;5051523;28;20208;-60
2023/07/21 11:02:03;;;;;;;5.13;2.45;;;24.00;99.90;;;;;;5058006;28;20283;-60
2023/07/21 11:04:33;;;;;;;1.88;1.77;;;23.80;99.90;;;;;;5065918;28;20197;-57
2023/07/21 11:07:01;;;;;;;4.82;1.90;;;23.70;99.90;;;;;;5055835;28;20307;-60
2023/07/21 11:09:31;;;;;;;3.38;2.03;;;23.60;99.90;;;;;;5060121;28;20614;-59
2023/07/21 11:11:59;;;;;;;2.72;2.17;;;23.60;99.90;;;;;;5056718;28;20202;-60
2023/07/21 11:14:27;;;;;;;2.38;2.22;;;23.60;99.90;;;;;;5057978;28;20209;-60
2023/07/21 11:16:56;;;;;;;5.57;2.15;;;23.50;99.90;;;;;;5053032;28;20225;-60
2023/07/21 11:19:25;;;;;;;2.63;1.80;;;23.50;99.90;;;;;;5058997;28;20221;-59
2023/07/21 11:21:54;;;;;;;2.05;1.60;;;23.40;99.90;;;;;;5067322;28;20201;-57
2023/07/21 11:24:28;;;;;;;1.88;1.77;;;23.40;99.90;;;;;;5067918;28;20208;-57
2023/07/21 11:27:01;;;;;;;5.03;2.42;;;23.40;99.90;;;;;;5056428;28;20229;-58
2023/07/21 11:29:33;;;;;;;2.15;2.00;;;23.50;99.90;;;;;;5056137;28;20201;-59
2023/07/21 11:32:01;;;;;;;3.63;2.10;;;23.80;99.90;;;;;;5062138;28;20203;-60
2023/07/21 11:34:29;;;;;;;4.25;1.73;;;23.90;99.90;;;;;;5070306;28;20675;-58
2023/07/21 11:37:00;;;;;;;3.45;2.15;;;23.90;99.90;;;;;;5055678;28;20220;-59
2023/07/21 11:39:29;;;;;;;2.10;2.00;;;23.80;99.90;;;;;;5063374;28;20197;-60
2023/07/21 11:41:57;;;;;;;4.57;2.38;;;23.70;99.90;;;;;;5061484;28;20262;-58
2023/07/21 11:44:26;;;;;;;5.20;1.80;;;23.60;99.90;;;;;;5061453;28;20239;-57
2023/07/21 11:46:56;;;;;;;2.08;1.42;;;23.50;99.90;;;;;;5057866;28;20256;-57
2023/07/21 11:49:25;;;;;;;4.00;2.30;;;23.40;99.90;;;;;;5059048;28;20221;-58
2023/07/21 11:51:53;;;;;;;2.95;2.50;;;23.30;99.90;;;;;;5058445;28;20665;-57
2023/07/21 11:54:23;;;;;;;8.43;2.30;;;23.20;99.90;;;;;;5068732;28;20636;-57
2023/07/21 11:56:52;;;;;;;6.60;2.20;;;23.00;99.90;;;;;;5055112;28;20229;-59
2023/07/21 11:59:20;;;;;;;3.08;1.90;;;23.00;99.90;;;;;;5071510;28;20239;-57
2023/07/21 12:01:48;;;;;;;4.07;1.58;;;23.10;99.90;;;;;;5061412;28;20263;-58
2023/07/21 12:04:17;;;;;;;5.03;1.65;;;23.10;99.90;;;;;;5068179;28;20205;-57
2023/07/21 12:06:45;;;;;;;7.90;1.70;;;23.20;99.90;;;;;;5055634;28;20300;-58
2023/07/21 12:09:13;;;;;;;1.70;1.60;;;23.20;99.90;;;;;;5064673;28;20287;-58
2023/07/21 12:11:42;;;;;;;1.73;1.42;;;23.10;99.90;;;;;;5052344;28;20619;-59
2023/07/21 12:14:10;;;;;;;8.80;1.77;;;23.10;99.90;;;;;;5074622;28;20232;-58
2023/07/21 12:16:38;;;;;;;2.28;2.08;;;23.10;99.90;;;;;;5056128;28;20716;-57
2023/07/21 12:19:06;;;;;;;3.75;1.60;;;23.00;99.90;;;;;;5067737;28;20255;-58
2023/07/21 12:21:35;;;;;;;4.70;1.90;;;23.00;99.90;;;;;;5061237;28;20239;-58
2023/07/21 12:24:11;;;;;;;1.75;1.50;;;23.00;99.90;;;;;;5063162;28;20204;-59
2023/07/21 12:26:39;;;;;;;6.63;1.70;;;22.90;99.90;;;;;;5069864;28;20251;-59
2023/07/21 12:29:08;;;;;;;1.70;1.60;;;22.90;99.90;;;;;;5068588;28;20228;-59
2023/07/21 12:31:37;;;;;;;3.00;1.50;;;22.80;99.90;;;;;;5057219;28;20201;-59
2023/07/21 12:34:05;;;;;;;2.78;1.83;;;22.60;99.90;;;;;;5067426;28;20216;-58
2023/07/21 12:36:34;;;;;;;4.25;1.77;;;22.50;99.90;;;;;;5063653;28;20254;-58
2023/07/21 12:39:04;;;;;;;6.15;1.60;;;22.40;99.90;;;;;;5067491;28;20204;-59
2023/07/21 12:41:32;;;;;;;4.57;1.63;;;22.40;99.90;;;;;;5062364;28;20329;-59
2023/07/21 12:44:00;;;;;;;4.38;1.42;;;22.30;99.90;;;;;;5065655;28;20646;-59
2023/07/21 12:46:29;;;;;;;3.47;1.42;;;22.30;99.90;;;;;;5068931;28;20277;-57
2023/07/21 12:48:57;;;;;;;1.65;1.42;;;22.20;99.90;;;;;;5040582;28;20304;-58
2023/07/21 12:51:25;;;;;;;3.80;1.25;;;22.30;99.90;;;;;;5069623;28;20217;-58
2023/07/21 12:53:53;;;;;;;2.15;1.50;;;22.30;99.90;;;;;;5062116;28;20197;-57
2023/07/21 12:56:21;;;;;;;1.98;1.42;;;22.30;99.90;;;;;;5062181;28;20268;-58
2023/07/21 12:58:49;;;;;;;1.85;1.20;;;22.30;99.90;;;;;;5059660;28;20201;-58
2023/07/21 13:01:17;;;;;;;4.38;1.10;;;22.30;99.90;;;;;;5068218;28;20649;-56
2023/07/21 13:03:46;;;;;;;1.20;1.20;;;22.20;99.90;;;;;;5061225;28;20205;-58